createdAt,value
2018-09-05T00:00:51.771Z,15.90
2018-09-05T00:03:55.396Z,15.83
2018-09-05T00:06:58.984Z,15.81
2018-09-05T00:10:02.707Z,15.74
2018-09-05T00:13:06.722Z,15.63
2018-09-05T00:16:10.296Z,15.61
2018-09-05T00:19:13.953Z,15.51
2018-09-05T00:22:17.779Z,15.44
2018-09-05T00:25:21.436Z,15.48
2018-09-05T00:28:25.150Z,15.43
2018-09-05T00:31:28.836Z,15.48
2018-09-05T00:34:32.454Z,15.48
2018-09-05T00:37:36.111Z,15.48
2018-09-05T00:40:39.687Z,15.47
2018-09-05T00:43:43.270Z,15.43
2018-09-05T00:46:47.019Z,15.42
2018-09-05T00:49:50.815Z,15.38
2018-09-05T00:52:54.330Z,15.38
2018-09-05T00:55:57.962Z,15.38
2018-09-05T00:59:01.540Z,15.27
2018-09-05T01:02:05.186Z,15.30
2018-09-05T01:05:08.805Z,15.24
2018-09-05T01:08:12.435Z,15.16
2018-09-05T01:11:16.048Z,15.14
2018-09-05T01:14:19.724Z,15.11
2018-09-05T01:17:23.448Z,15.10
2018-09-05T01:20:27.058Z,15.09
2018-09-05T01:23:30.616Z,15.04
2018-09-05T01:26:34.236Z,15.01
2018-09-05T01:29:39.062Z,14.92
2018-09-05T01:32:42.617Z,14.85
2018-09-05T01:35:46.300Z,14.84
2018-09-05T01:38:49.890Z,14.85
2018-09-05T01:41:53.421Z,14.87
2018-09-05T01:44:57.060Z,14.89
2018-09-05T01:48:00.668Z,14.86
2018-09-05T01:51:04.311Z,14.79
2018-09-05T01:54:08.010Z,14.70
2018-09-05T01:57:11.585Z,14.64
2018-09-05T02:00:20.488Z,14.53
2018-09-05T02:03:24.142Z,14.48
2018-09-05T02:06:27.807Z,14.41
2018-09-05T02:09:31.396Z,14.42
2018-09-05T02:12:35.038Z,14.40
2018-09-05T02:15:38.637Z,14.39
2018-09-05T02:18:42.393Z,14.35
2018-09-05T02:21:46.083Z,14.30
2018-09-05T02:24:49.725Z,14.29
2018-09-05T02:27:53.421Z,14.18
2018-09-05T02:30:56.990Z,14.19
2018-09-05T02:34:00.683Z,14.11
2018-09-05T02:37:04.265Z,14.09
2018-09-05T02:40:08.500Z,14.06
2018-09-05T02:43:15.667Z,14.00
2018-09-05T02:46:19.261Z,13.99
2018-09-05T02:49:22.820Z,14.00
2018-09-05T02:52:26.698Z,13.93
2018-09-05T02:55:35.452Z,13.90
2018-09-05T02:58:39.035Z,13.85
2018-09-05T03:01:42.723Z,13.79
2018-09-05T03:04:46.290Z,13.80
2018-09-05T03:07:49.981Z,13.78
2018-09-05T03:10:53.666Z,13.75
2018-09-05T03:13:57.311Z,13.69
2018-09-05T03:17:01.056Z,13.80
2018-09-05T03:20:04.774Z,13.70
2018-09-05T03:23:08.557Z,13.74
2018-09-05T03:26:12.170Z,13.73
2018-09-05T03:29:15.812Z,13.76
2018-09-05T03:32:19.607Z,13.67
2018-09-05T03:35:23.228Z,13.62
2018-09-05T03:38:27.014Z,13.55
2018-09-05T03:41:30.648Z,13.55
2018-09-05T03:44:34.210Z,13.48
2018-09-05T03:47:37.805Z,13.49
2018-09-05T03:50:41.347Z,13.49
2018-09-05T03:53:44.973Z,13.48
2018-09-05T03:56:48.576Z,13.44
2018-09-05T03:59:52.223Z,13.40
2018-09-05T04:02:55.802Z,13.41
2018-09-05T04:05:59.413Z,13.39
2018-09-05T04:09:03.921Z,13.34
2018-09-05T04:12:07.570Z,13.29
2018-09-05T04:15:12.038Z,13.32
2018-09-05T04:18:15.696Z,13.23
2018-09-05T04:21:19.308Z,13.23
2018-09-05T04:24:23.016Z,13.27
2018-09-05T04:27:26.732Z,13.29
2018-09-05T04:30:30.299Z,13.24
2018-09-05T04:33:34.038Z,13.30
2018-09-05T04:36:37.682Z,13.36
2018-09-05T04:39:41.423Z,13.33
2018-09-05T04:42:44.990Z,13.36
2018-09-05T04:45:48.673Z,13.38
2018-09-05T04:48:52.381Z,13.35
2018-09-05T04:51:56.049Z,13.37
2018-09-05T04:54:59.770Z,13.36
2018-09-05T04:58:03.389Z,13.36
2018-09-05T05:01:07.172Z,13.38
2018-09-05T05:04:10.868Z,13.45
2018-09-05T05:07:14.584Z,13.52
2018-09-05T05:10:18.244Z,13.59
2018-09-05T05:13:21.927Z,13.66
2018-09-05T05:16:25.649Z,13.74
2018-09-05T05:19:29.301Z,13.86
2018-09-05T05:22:32.987Z,14.09
2018-09-05T05:25:36.620Z,14.29
2018-09-05T05:28:43.879Z,14.40
2018-09-05T05:31:47.549Z,14.77
2018-09-05T05:34:51.312Z,15.51
2018-09-05T05:37:55.048Z,16.27
2018-09-05T05:40:58.765Z,16.96
2018-09-05T05:44:02.439Z,17.58
2018-09-05T05:47:06.259Z,17.62
2018-09-05T05:50:09.963Z,17.92
2018-09-05T05:53:13.704Z,18.74
2018-09-05T05:56:17.426Z,18.48
2018-09-05T05:59:21.114Z,19.22
2018-09-05T06:02:25.141Z,19.15
2018-09-05T06:05:28.823Z,19.11
2018-09-05T06:08:33.003Z,19.16
2018-09-05T06:11:36.789Z,19.24
2018-09-05T06:14:40.508Z,19.76
2018-09-05T06:17:44.405Z,20.25
2018-09-05T06:20:48.123Z,19.89
2018-09-05T06:23:51.824Z,19.94
2018-09-05T06:26:55.456Z,20.25
2018-09-05T06:29:59.110Z,20.58
2018-09-05T06:33:02.845Z,20.89
2018-09-05T06:36:06.484Z,20.29
2018-09-05T06:39:10.966Z,20.56
2018-09-05T06:42:14.714Z,19.91
2018-09-05T06:45:18.427Z,19.69
2018-09-05T06:48:23.140Z,19.84
2018-09-05T06:51:26.859Z,19.29
2018-09-05T06:54:30.623Z,19.41
2018-09-05T06:57:34.380Z,19.27
2018-09-05T07:00:38.065Z,19.33
2018-09-05T07:03:41.979Z,18.98
2018-09-05T07:06:45.857Z,19.13
2018-09-05T07:09:49.561Z,19.50
2018-09-05T07:12:53.234Z,19.32
2018-09-05T07:15:56.907Z,19.50
2018-09-05T07:19:00.570Z,19.54
2018-09-05T07:22:04.491Z,19.76
2018-09-05T07:25:08.224Z,19.92
2018-09-05T07:28:11.935Z,19.96
2018-09-05T07:31:15.672Z,19.95
2018-09-05T07:34:19.355Z,19.85
2018-09-05T07:37:22.985Z,19.76
2018-09-05T07:40:26.736Z,19.69
2018-09-05T07:43:30.429Z,20.07
2018-09-05T07:46:34.017Z,19.88
2018-09-05T07:49:37.725Z,19.79
2018-09-05T07:52:41.399Z,20.03
2018-09-05T07:55:45.080Z,20.04
2018-09-05T07:58:48.848Z,19.98
2018-09-05T08:01:52.536Z,20.21
2018-09-05T08:04:56.616Z,20.17
2018-09-05T08:08:00.240Z,20.03
2018-09-05T08:11:03.845Z,19.94
2018-09-05T08:14:07.650Z,19.76
2018-09-05T08:17:11.333Z,20.11
2018-09-05T08:20:14.993Z,20.15
2018-09-05T08:23:18.583Z,19.65
2018-09-05T08:26:22.168Z,20.03
2018-09-05T08:29:25.820Z,20.25
2018-09-05T08:32:29.522Z,20.31
2018-09-05T08:35:33.666Z,20.27
2018-09-05T08:38:37.048Z,20.70
2018-09-05T08:41:40.713Z,20.09
2018-09-05T08:44:44.364Z,20.59
2018-09-05T08:47:48.115Z,20.80
2018-09-05T08:50:52.435Z,20.78
2018-09-05T08:53:56.342Z,20.74
2018-09-05T08:57:00.062Z,21.07
2018-09-05T09:00:03.860Z,21.37
2018-09-05T09:03:07.642Z,21.36
2018-09-05T09:06:11.302Z,21.52
2018-09-05T09:09:15.034Z,21.54
2018-09-05T09:12:18.999Z,21.58
2018-09-05T09:15:22.741Z,21.78
2018-09-05T09:18:26.511Z,21.69
2018-09-05T09:21:30.362Z,21.93
2018-09-05T09:24:34.100Z,21.97
2018-09-05T09:27:37.871Z,21.92
2018-09-05T09:30:41.524Z,21.89
2018-09-05T09:33:45.165Z,21.87
2018-09-05T09:36:48.816Z,22.08
2018-09-05T09:39:52.523Z,22.04
2018-09-05T09:42:56.191Z,22.05
2018-09-05T09:45:59.986Z,22.17
2018-09-05T09:49:03.856Z,22.13
2018-09-05T09:52:12.759Z,22.16
2018-09-05T09:55:16.485Z,22.09
2018-09-05T09:58:20.516Z,22.22
2018-09-05T10:01:29.285Z,22.20
2018-09-05T10:04:38.303Z,22.17
2018-09-05T10:07:47.121Z,22.39
2018-09-05T10:10:55.851Z,22.43
2018-09-05T10:14:04.577Z,22.34
2018-09-05T10:17:13.502Z,22.57
2018-09-05T10:20:17.191Z,22.29
2018-09-05T10:23:21.681Z,22.36
2018-09-05T10:26:25.227Z,22.42
2018-09-05T10:29:28.944Z,22.55
2018-09-05T10:32:32.736Z,22.69
2018-09-05T10:35:36.371Z,22.75
2018-09-05T10:38:39.958Z,22.68
2018-09-05T10:41:43.873Z,22.79
2018-09-05T10:44:47.485Z,22.67
2018-09-05T10:47:51.176Z,22.53
2018-09-05T10:50:55.057Z,22.65
2018-09-05T10:53:58.672Z,22.67
2018-09-05T10:57:03.131Z,22.58
2018-09-05T11:00:06.952Z,22.65
2018-09-05T11:03:10.663Z,22.98
2018-09-05T11:06:14.275Z,22.84
2018-09-05T11:09:18.011Z,22.92
2018-09-05T11:12:21.722Z,22.83
2018-09-05T11:15:25.372Z,22.90
2018-09-05T11:18:29.023Z,22.98
2018-09-05T11:21:32.617Z,22.88
2018-09-05T11:24:36.291Z,22.78
2018-09-05T11:27:40.164Z,22.61
2018-09-05T11:30:43.988Z,22.75
2018-09-05T11:33:47.757Z,22.91
2018-09-05T11:36:51.454Z,22.91
2018-09-05T11:39:55.186Z,23.02
2018-09-05T11:42:58.829Z,22.78
2018-09-05T11:46:02.441Z,22.85
2018-09-05T11:49:06.616Z,23.16
2018-09-05T11:52:10.457Z,23.06
2018-09-05T11:55:14.143Z,23.08
2018-09-05T11:58:17.826Z,23.08
2018-09-05T12:01:21.595Z,23.24
2018-09-05T12:04:25.356Z,23.38
2018-09-05T12:07:29.118Z,23.40
2018-09-05T12:10:32.790Z,23.10
2018-09-05T12:13:36.442Z,23.27
2018-09-05T12:16:40.243Z,23.43
2018-09-05T12:19:43.916Z,23.46
2018-09-05T12:22:47.562Z,23.32
2018-09-05T12:25:51.620Z,23.37
2018-09-05T12:28:55.337Z,23.43
2018-09-05T12:31:59.076Z,23.34
2018-09-05T12:35:02.887Z,23.37
2018-09-05T12:38:06.733Z,23.38
2018-09-05T12:41:10.431Z,23.30
2018-09-05T12:44:14.102Z,23.53
2018-09-05T12:47:17.884Z,23.50
2018-09-05T12:50:21.617Z,23.34
2018-09-05T12:53:25.611Z,23.37
2018-09-05T12:56:29.581Z,23.41
2018-09-05T12:59:33.422Z,23.43
2018-09-05T13:02:37.199Z,23.54
2018-09-05T13:05:40.871Z,23.54
2018-09-05T13:08:44.578Z,23.70
2018-09-05T13:11:48.242Z,23.51
2018-09-05T13:14:51.938Z,23.56
2018-09-05T13:17:55.623Z,23.57
2018-09-05T13:20:59.509Z,23.46
2018-09-05T13:24:03.155Z,23.59
2018-09-05T13:27:06.909Z,23.77
2018-09-05T13:30:10.552Z,23.77
2018-09-05T13:33:14.412Z,23.81
2018-09-05T13:36:18.233Z,23.76
2018-09-05T13:39:22.043Z,23.79
2018-09-05T13:42:25.697Z,23.75
2018-09-05T13:45:29.396Z,23.80
2018-09-05T13:48:33.138Z,23.69
2018-09-05T13:51:36.882Z,23.68
2018-09-05T13:54:40.639Z,23.89
2018-09-05T13:57:44.362Z,24.01
2018-09-05T14:00:48.074Z,24.00
2018-09-05T14:03:51.893Z,23.76
2018-09-05T14:06:55.654Z,23.94
2018-09-05T14:09:59.385Z,23.92
2018-09-05T14:13:03.132Z,23.81
2018-09-05T14:16:06.970Z,23.73
2018-09-05T14:19:10.718Z,24.05
2018-09-05T14:22:14.477Z,24.10
2018-09-05T14:25:19.089Z,23.98
2018-09-05T14:28:22.797Z,24.05
2018-09-05T14:31:26.537Z,24.08
2018-09-05T14:34:30.288Z,24.03
2018-09-05T14:37:33.974Z,23.97
2018-09-05T14:40:37.671Z,24.10
2018-09-05T14:43:41.773Z,24.04
2018-09-05T14:46:45.629Z,23.98
2018-09-05T14:49:49.343Z,24.09
2018-09-05T14:52:53.085Z,24.02
2018-09-05T14:55:56.769Z,23.92
2018-09-05T14:59:00.407Z,24.04
2018-09-05T15:02:04.172Z,23.94
2018-09-05T15:05:07.922Z,24.10
2018-09-05T15:08:11.891Z,24.15
2018-09-05T15:11:15.578Z,24.15
2018-09-05T15:14:19.270Z,24.20
2018-09-05T15:17:23.056Z,24.10
2018-09-05T15:20:26.839Z,24.12
2018-09-05T15:23:30.473Z,24.12
2018-09-05T15:26:34.492Z,23.96
2018-09-05T15:29:38.423Z,23.97
2018-09-05T15:32:42.209Z,24.04
2018-09-05T15:35:45.946Z,23.91
2018-09-05T15:38:49.683Z,23.94
2018-09-05T15:41:53.428Z,23.99
2018-09-05T15:44:57.239Z,23.91
2018-09-05T15:48:00.909Z,23.94
2018-09-05T15:51:04.668Z,23.92
2018-09-05T15:54:08.474Z,23.98
2018-09-05T15:57:12.187Z,23.87
2018-09-05T16:00:15.978Z,23.81
2018-09-05T16:03:19.708Z,23.81
2018-09-05T16:06:23.623Z,23.86
2018-09-05T16:09:27.338Z,23.89
2018-09-05T16:12:31.098Z,23.81
2018-09-05T16:15:34.935Z,23.77
2018-09-05T16:18:38.508Z,23.61
2018-09-05T16:21:42.840Z,23.54
2018-09-05T16:24:46.593Z,23.60
2018-09-05T16:27:50.212Z,23.50
2018-09-05T16:30:53.914Z,23.37
2018-09-05T16:33:57.756Z,23.29
2018-09-05T16:37:01.368Z,23.24
2018-09-05T16:40:05.168Z,23.34
2018-09-05T16:43:09.141Z,23.12
2018-09-05T16:46:12.824Z,23.21
2018-09-05T16:49:16.538Z,23.18
2018-09-05T16:52:20.314Z,22.99
2018-09-05T16:55:23.948Z,22.95
2018-09-05T16:58:27.689Z,22.91
2018-09-05T17:01:31.368Z,22.81
2018-09-05T17:04:35.141Z,22.80
2018-09-05T17:07:38.766Z,22.81
2018-09-05T17:10:42.490Z,22.80
2018-09-05T17:13:46.223Z,22.72
2018-09-05T17:16:50.058Z,22.61
2018-09-05T17:19:53.929Z,22.47
2018-09-05T17:22:57.612Z,22.47
2018-09-05T17:26:01.437Z,22.37
2018-09-05T17:29:05.958Z,22.28
2018-09-05T17:32:09.663Z,22.34
2018-09-05T17:35:13.686Z,22.17
2018-09-05T17:38:17.389Z,22.08
2018-09-05T17:41:22.002Z,21.91
2018-09-05T17:44:25.773Z,21.84
2018-09-05T17:47:29.482Z,21.50
2018-09-05T17:50:33.226Z,21.34
2018-09-05T17:53:37.048Z,21.18
2018-09-05T17:56:40.719Z,21.03
2018-09-05T17:59:44.500Z,20.89
2018-09-05T18:02:48.396Z,20.70
2018-09-05T18:05:52.177Z,20.45
2018-09-05T18:08:55.896Z,20.25
2018-09-05T18:11:59.820Z,20.07
2018-09-05T18:15:04.372Z,19.91
2018-09-05T18:18:08.154Z,19.85
2018-09-05T18:21:11.797Z,19.76
2018-09-05T18:24:15.709Z,19.87
2018-09-05T18:27:19.544Z,19.68
2018-09-05T18:30:23.330Z,19.88
2018-09-05T18:33:27.246Z,19.72
2018-09-05T18:36:31.011Z,19.52
2018-09-05T18:39:34.832Z,19.36
2018-09-05T18:42:38.573Z,19.20
2018-09-05T18:45:42.351Z,19.02
2018-09-05T18:48:46.075Z,19.15
2018-09-05T18:51:49.805Z,19.22
2018-09-05T18:54:53.634Z,19.22
2018-09-05T18:57:57.321Z,19.28
2018-09-05T19:01:01.151Z,19.10
2018-09-05T19:04:04.872Z,18.98
2018-09-05T19:07:08.533Z,19.03
2018-09-05T19:10:12.238Z,18.84
2018-09-05T19:13:15.931Z,18.69
2018-09-05T19:16:19.628Z,18.57
2018-09-05T19:19:23.428Z,18.47
2018-09-05T19:22:27.150Z,18.30
2018-09-05T19:25:30.860Z,18.27
2018-09-05T19:28:35.416Z,18.13
2018-09-05T19:31:39.401Z,18.15
2018-09-05T19:34:43.254Z,18.18
2018-09-05T19:37:46.979Z,18.10
2018-09-05T19:40:50.778Z,18.06
2018-09-05T19:43:54.597Z,18.11
2018-09-05T19:46:58.353Z,18.17
2018-09-05T19:50:02.087Z,18.00
2018-09-05T19:53:05.972Z,17.97
2018-09-05T19:56:09.833Z,17.93
2018-09-05T19:59:13.610Z,17.89
2018-09-05T20:02:17.383Z,17.80
2018-09-05T20:05:21.934Z,17.77
2018-09-05T20:08:25.608Z,17.70
2018-09-05T20:11:29.442Z,17.72
2018-09-05T20:14:33.358Z,17.54
2018-09-05T20:17:37.094Z,17.43
2018-09-05T20:20:41.002Z,17.44
2018-09-05T20:23:44.696Z,17.37
2018-09-05T20:26:48.364Z,17.30
2018-09-05T20:29:52.331Z,17.13
2018-09-05T20:32:55.987Z,17.13
2018-09-05T20:35:59.611Z,17.09
2018-09-05T20:39:03.773Z,17.06
2018-09-05T20:42:07.408Z,17.17
2018-09-05T20:45:11.159Z,17.20
2018-09-05T20:48:14.824Z,17.66
2018-09-05T20:51:18.790Z,17.70
2018-09-05T20:56:01.142Z,18.29
2018-09-05T20:59:04.820Z,18.39
2018-09-05T21:02:08.515Z,18.41
2018-09-05T21:05:12.288Z,18.25
2018-09-05T21:08:16.136Z,18.13
2018-09-05T21:11:19.979Z,18.20
2018-09-05T21:14:23.727Z,18.08
2018-09-05T21:17:27.433Z,17.67
2018-09-05T21:20:31.213Z,17.48
2018-09-05T21:23:34.919Z,17.45
2018-09-05T21:26:38.643Z,17.40
2018-09-05T21:29:42.293Z,17.59
2018-09-05T21:32:46.004Z,17.47
2018-09-05T21:35:49.648Z,17.26
2018-09-05T21:38:53.331Z,17.30
2018-09-05T21:41:56.909Z,17.28
2018-09-05T21:45:00.619Z,17.16
2018-09-05T21:48:04.377Z,17.19
2018-09-05T21:51:08.057Z,17.39
2018-09-05T21:54:11.838Z,17.47
2018-09-05T21:57:15.512Z,17.67
2018-09-05T22:00:19.175Z,17.47
2018-09-05T22:03:22.878Z,17.34
2018-09-05T22:06:26.627Z,17.15
2018-09-05T22:09:30.267Z,17.15
2018-09-05T22:12:34.032Z,17.15
2018-09-05T22:15:52.169Z,17.29
2018-09-05T22:18:55.859Z,17.41
2018-09-05T22:21:59.512Z,17.34
2018-09-05T22:25:03.382Z,17.19
2018-09-05T22:28:07.162Z,17.15
2018-09-05T22:31:10.829Z,17.11
2018-09-05T22:34:14.612Z,17.02
2018-09-05T22:37:18.262Z,17.47
2018-09-05T22:40:21.917Z,17.33
2018-09-05T22:43:37.498Z,17.04
2018-09-05T22:46:52.286Z,16.90
2018-09-05T22:50:12.267Z,16.82
2018-09-05T22:54:50.383Z,16.77
2018-09-05T22:59:05.865Z,16.96
2018-09-05T23:03:19.112Z,16.76
2018-09-05T23:08:51.857Z,16.60
2018-09-05T23:12:06.587Z,16.60
2018-09-05T23:16:23.435Z,16.60
2018-09-05T23:19:41.748Z,16.94
2018-09-05T23:22:56.487Z,16.84
2018-09-05T23:26:00.941Z,16.56
2018-09-05T23:29:04.773Z,16.35
2018-09-05T23:32:08.426Z,16.22
2018-09-05T23:35:12.042Z,16.15
2018-09-05T23:38:15.728Z,16.21
2018-09-05T23:41:19.404Z,16.20
2018-09-05T23:44:23.069Z,16.06
2018-09-05T23:47:26.828Z,16.21
2018-09-05T23:50:30.457Z,16.22
2018-09-05T23:53:34.264Z,16.15
2018-09-05T23:56:37.997Z,15.96
2018-09-05T23:59:41.643Z,15.96
